Time;durP1;ratioP1;P1;durP2;ratioP2;P2;SDS_P1;SDS_P2;PMS_P1;PMS_P2;Temp;Humidity;BMP_temperature;BMP_pressure;BME280_temperature;BME280_humidity;BME280_pressure;Samples;Min_cycle;Max_cycle;Signal;HPM_P1;HPM_P2
2021/10/29 00:00:20;;;;;;;4.40;3.20;;;;;;;7.13;82.73;95424.28;5057765;28;20653;-79
2021/10/29 00:02:45;;;;;;;4.30;3.63;;;;;;;7.06;83.23;95423.97;5051023;28;20220;-79
2021/10/29 00:05:11;;;;;;;4.80;3.37;;;;;;;7.06;83.50;95424.78;5033584;28;20263;-78
2021/10/29 00:07:36;;;;;;;3.37;2.97;;;;;;;7.04;83.63;95415.56;5051315;28;20193;-80
2021/10/29 00:10:04;;;;;;;5.07;3.20;;;;;;;7.12;83.39;95413.16;5034681;28;20581;-79
2021/10/29 00:12:29;;;;;;;3.70;3.20;;;;;;;7.15;83.65;95409.47;5049897;28;20186;-79
2021/10/29 00:14:54;;;;;;;6.40;3.60;;;;;;;7.12;83.34;95409.75;5055888;28;20196;-79
2021/10/29 00:17:20;;;;;;;4.40;3.30;;;;;;;7.09;83.56;95410.84;5044682;28;20174;-80
2021/10/29 00:19:46;;;;;;;5.90;3.57;;;;;;;7.05;83.69;95405.09;5034270;28;20198;-79
2021/10/29 00:22:11;;;;;;;5.60;3.77;;;;;;;7.04;83.86;95405.22;5060004;28;20679;-80
2021/10/29 00:24:37;;;;;;;4.57;3.70;;;;;;;6.99;84.37;95399.66;5070009;28;20640;-79
2021/10/29 00:27:03;;;;;;;5.13;3.73;;;;;;;6.91;83.95;95400.28;5053813;28;20174;-79
2021/10/29 00:29:28;;;;;;;3.70;3.30;;;;;;;6.78;84.21;95397.09;5070604;28;20202;-79
2021/10/29 00:31:53;;;;;;;3.57;3.27;;;;;;;6.61;84.21;95407.97;5061827;28;20238;-79
2021/10/29 00:34:19;;;;;;;5.73;3.27;;;;;;;6.44;84.20;95396.47;5040884;28;20203;-79
2021/10/29 00:36:44;;;;;;;6.07;3.80;;;;;;;6.30;85.21;95405.34;5055168;28;20174;-79
2021/10/29 00:39:10;;;;;;;3.90;3.50;;;;;;;6.30;85.40;95399.38;5054675;28;20244;-79
2021/10/29 00:41:36;;;;;;;4.37;3.23;;;;;;;6.15;85.89;95406.59;5056456;28;20189;-79
2021/10/29 00:44:02;;;;;;;4.60;3.20;;;;;;;6.01;86.26;95404.28;5050052;28;20649;-79
2021/10/29 00:46:28;;;;;;;4.33;3.50;;;;;;;5.87;86.23;95405.38;5054371;28;20185;-79
2021/10/29 00:48:54;;;;;;;3.70;3.27;;;;;;;5.78;87.43;95409.50;5046433;28;20214;-79
2021/10/29 00:51:19;;;;;;;5.67;3.83;;;;;;;5.74;87.19;95413.25;5042849;28;20182;-79
2021/10/29 00:53:46;;;;;;;7.70;4.33;;;;;;;5.56;87.29;95410.38;5051533;28;20558;-79
2021/10/29 00:56:11;;;;;;;5.87;4.90;;;;;;;5.36;87.76;95414.50;5041151;28;20228;-79
2021/10/29 00:58:37;;;;;;;5.40;4.53;;;;;;;5.28;88.40;95414.28;5038238;28;20205;-80
2021/10/29 01:01:03;;;;;;;8.57;6.07;;;;;;;5.24;88.98;95407.75;5054315;28;20174;-79
2021/10/29 01:03:29;;;;;;;9.57;6.07;;;;;;;5.12;89.35;95411.22;5044902;28;20240;-79
2021/10/29 01:05:54;;;;;;;6.23;5.17;;;;;;;5.06;89.60;95406.56;5065566;28;20170;-79
2021/10/29 01:08:19;;;;;;;5.43;4.70;;;;;;;5.01;89.18;95409.50;5057067;28;20240;-79
2021/10/29 01:10:46;;;;;;;5.33;4.83;;;;;;;4.96;88.97;95410.78;5073953;28;20170;-79
2021/10/29 01:13:12;;;;;;;5.50;4.70;;;;;;;4.98;90.09;95414.88;5070726;28;20200;-79
2021/10/29 01:15:37;;;;;;;5.53;4.50;;;;;;;4.98;90.52;95407.16;5064300;28;20181;-79
2021/10/29 01:18:02;;;;;;;4.63;3.80;;;;;;;5.01;90.59;95414.63;5073556;28;20170;-79
2021/10/29 01:20:28;;;;;;;5.20;3.50;;;;;;;5.00;90.99;95417.34;5057191;28;20176;-79
2021/10/29 01:22:53;;;;;;;4.93;4.17;;;;;;;4.96;90.74;95419.34;5057173;28;20268;-79
2021/10/29 01:25:19;;;;;;;4.27;3.23;;;;;;;4.95;90.43;95412.56;5068415;28;20252;-80
2021/10/29 01:27:45;;;;;;;4.73;3.30;;;;;;;4.97;90.75;95417.56;5049982;28;20300;-79
2021/10/29 01:30:11;;;;;;;7.13;4.03;;;;;;;4.95;91.37;95414.31;5056841;28;20229;-79
2021/10/29 01:32:38;;;;;;;3.70;3.40;;;;;;;4.91;91.37;95408.56;5057089;28;20595;-79
2021/10/29 01:35:04;;;;;;;4.57;3.77;;;;;;;4.90;91.55;95411.25;5066633;28;20186;-79
2021/10/29 01:37:30;;;;;;;5.00;3.47;;;;;;;4.88;91.66;95408.81;5047669;28;20238;-79
2021/10/29 01:39:55;;;;;;;6.20;4.03;;;;;;;4.94;92.07;95413.47;5073558;28;20713;-80
2021/10/29 01:42:20;;;;;;;3.90;3.07;;;;;;;4.91;91.58;95405.97;5054949;28;20512;-79
2021/10/29 01:44:46;;;;;;;4.80;3.23;;;;;;;4.86;91.80;95404.69;5072033;28;20183;-80
2021/10/29 01:47:12;;;;;;;6.00;3.70;;;;;;;4.87;92.14;95409.75;5061214;28;20189;-79
2021/10/29 01:49:39;;;;;;;5.60;3.43;;;;;;;4.86;92.16;95414.97;5056501;28;20680;-79
2021/10/29 01:52:04;;;;;;;3.63;3.00;;;;;;;4.83;92.17;95409.13;5056880;28;20184;-79
2021/10/29 01:54:30;;;;;;;5.17;3.23;;;;;;;4.88;92.37;95400.25;5072880;28;20268;-79
2021/10/29 01:56:56;;;;;;;4.73;3.40;;;;;;;4.93;92.47;95396.38;5067230;28;20169;-79
2021/10/29 01:59:22;;;;;;;4.37;3.40;;;;;;;4.91;92.33;95392.31;5045904;28;20202;-79
2021/10/29 02:01:47;;;;;;;4.60;3.03;;;;;;;4.91;92.69;95395.69;5035811;28;20213;-79
2021/10/29 02:04:12;;;;;;;4.90;3.57;;;;;;;4.94;92.43;95395.44;5052472;28;20550;-79
2021/10/29 02:06:37;;;;;;;4.73;3.63;;;;;;;4.96;92.73;95392.78;5037584;28;20186;-79
2021/10/29 02:09:03;;;;;;;7.43;3.63;;;;;;;4.99;92.71;95395.13;5048492;28;20206;-79
2021/10/29 02:11:29;;;;;;;5.13;3.83;;;;;;;4.99;92.58;95392.53;5034997;28;20280;-80
2021/10/29 02:13:54;;;;;;;4.23;3.83;;;;;;;5.06;92.56;95391.13;5035393;28;20174;-80
2021/10/29 02:16:19;;;;;;;5.17;4.03;;;;;;;5.21;92.91;95386.53;5054144;28;20786;-79
2021/10/29 02:18:45;;;;;;;5.23;3.70;;;;;;;5.21;92.53;95389.97;5062798;28;20199;-79
2021/10/29 02:21:10;;;;;;;4.80;3.73;;;;;;;5.40;92.58;95390.16;5052237;28;20185;-80
2021/10/29 02:23:35;;;;;;;6.30;4.30;;;;;;;5.44;92.61;95385.59;5055149;28;20645;-79
2021/10/29 02:26:00;;;;;;;4.13;3.33;;;;;;;5.38;92.34;95394.59;5055857;28;20192;-79
2021/10/29 02:28:26;;;;;;;3.90;3.53;;;;;;;5.31;92.39;95385.72;5066488;28;20295;-79
2021/10/29 02:30:51;;;;;;;4.20;3.80;;;;;;;5.33;91.97;95388.19;5049633;28;20170;-79
2021/10/29 02:33:17;;;;;;;5.70;3.70;;;;;;;5.29;92.07;95379.03;5052427;28;20536;-79
2021/10/29 02:35:43;;;;;;;4.67;3.43;;;;;;;5.31;92.35;95379.75;5034987;28;20268;-79
2021/10/29 02:38:09;;;;;;;4.33;3.40;;;;;;;5.32;92.10;95374.50;5051955;28;20198;-79
2021/10/29 02:40:35;;;;;;;4.00;3.43;;;;;;;5.25;92.21;95378.47;5059865;28;20185;-79
2021/10/29 02:43:01;;;;;;;5.20;3.77;;;;;;;5.20;92.50;95372.84;5036312;28;20178;-79
2021/10/29 02:45:26;;;;;;;3.87;3.10;;;;;;;5.18;92.25;95368.78;5034967;28;20268;-79
2021/10/29 02:47:52;;;;;;;5.03;3.40;;;;;;;5.09;91.87;95367.72;5051487;28;20567;-79
2021/10/29 02:50:19;;;;;;;4.27;3.10;;;;;;;4.99;92.26;95365.03;5061308;28;20192;-79
2021/10/29 02:52:44;;;;;;;3.30;3.00;;;;;;;4.97;92.14;95366.94;5048112;28;20173;-79
2021/10/29 02:55:10;;;;;;;6.87;3.70;;;;;;;4.92;91.96;95358.72;5054539;28;20189;-79
2021/10/29 02:57:36;;;;;;;5.67;3.10;;;;;;;4.86;92.16;95353.22;5071516;28;20200;-79
2021/10/29 03:00:07;;;;;;;4.33;3.07;;;;;;;4.81;91.95;95359.56;5052197;28;20692;-79
2021/10/29 03:02:33;;;;;;;7.10;3.90;;;;;;;4.76;92.36;95363.41;5060048;28;20520;-80
2021/10/29 03:04:58;;;;;;;4.30;3.90;;;;;;;4.75;92.23;95362.59;5034481;28;20676;-79
2021/10/29 03:07:24;;;;;;;3.50;3.20;;;;;;;4.76;92.90;95365.97;5035407;28;20248;-79
2021/10/29 03:09:49;;;;;;;5.43;3.73;;;;;;;4.80;92.68;95367.41;5051816;28;20231;-79
2021/10/29 03:12:14;;;;;;;3.33;3.00;;;;;;;4.79;92.81;95369.16;5056246;28;20186;-79
2021/10/29 03:14:39;;;;;;;3.87;3.30;;;;;;;4.71;92.59;95371.47;5058022;28;20563;-79
2021/10/29 03:17:05;;;;;;;4.30;3.57;;;;;;;4.67;92.60;95369.25;5051201;28;20174;-79
2021/10/29 03:19:30;;;;;;;5.10;3.80;;;;;;;4.64;93.03;95362.59;5034661;28;20232;-79
2021/10/29 03:21:55;;;;;;;4.83;3.87;;;;;;;4.59;93.36;95364.66;5058786;28;20546;-79
2021/10/29 03:24:21;;;;;;;4.90;3.67;;;;;;;4.59;93.15;95362.09;5043751;28;20197;-80
2021/10/29 03:26:46;;;;;;;4.07;3.67;;;;;;;4.59;93.45;95371.56;5052852;28;20185;-79
2021/10/29 03:29:11;;;;;;;8.83;3.47;;;;;;;4.59;93.49;95362.09;5051784;28;20221;-80
2021/10/29 03:31:37;;;;;;;4.40;3.37;;;;;;;4.62;93.78;95367.03;5061117;28;20185;-80
2021/10/29 03:34:02;;;;;;;4.77;3.40;;;;;;;4.57;93.34;95356.25;5049208;28;20181;-79
2021/10/29 03:36:27;;;;;;;6.13;3.57;;;;;;;4.53;93.55;95368.53;5071244;28;20787;-80
2021/10/29 03:39:05;;;;;;;5.57;3.50;;;;;;;4.52;93.43;95369.47;5071047;28;20190;-79
2021/10/29 03:41:33;;;;;;;4.17;3.73;;;;;;;4.53;93.40;95358.25;5052881;28;20212;-79
2021/10/29 03:46:43;;;;;;;5.10;3.60;;;;;;;4.47;93.87;95360.47;5051498;28;20662;-79
2021/10/29 03:51:42;;;;;;;5.87;3.77;;;;;;;4.42;93.59;95352.28;5056099;28;20184;-79
2021/10/29 03:54:10;;;;;;;4.33;3.90;;;;;;;4.44;93.89;95342.69;5061926;28;20184;-78
2021/10/29 03:59:20;;;;;;;4.73;3.93;;;;;;;4.45;93.42;95337.44;5072171;28;20200;-79
2021/10/29 04:01:45;;;;;;;4.50;3.40;;;;;;;4.45;93.65;95334.88;5067711;28;20182;-79
2021/10/29 04:04:10;;;;;;;5.03;3.63;;;;;;;4.46;94.01;95344.22;5062986;28;20185;-80
2021/10/29 04:06:36;;;;;;;5.80;4.00;;;;;;;4.47;93.99;95342.47;5035712;28;20767;-81
2021/10/29 04:09:01;;;;;;;4.97;3.70;;;;;;;4.45;94.08;95344.34;5039801;28;20265;-80
2021/10/29 04:11:28;;;;;;;5.40;3.90;;;;;;;4.48;94.26;95344.91;5039031;28;20264;-80
2021/10/29 04:13:55;;;;;;;5.30;3.77;;;;;;;4.44;94.07;95361.53;5063160;28;20724;-79
2021/10/29 04:16:20;;;;;;;5.40;4.27;;;;;;;4.39;93.80;95355.06;5056162;28;20177;-80
2021/10/29 04:18:45;;;;;;;6.13;4.00;;;;;;;4.36;94.23;95365.59;5056693;28;20189;-80
2021/10/29 04:21:11;;;;;;;6.63;4.70;;;;;;;4.34;94.08;95363.16;5057631;28;20181;-81
2021/10/29 04:23:36;;;;;;;5.53;4.37;;;;;;;4.38;93.87;95363.72;5069049;28;20644;-82
2021/10/29 04:26:02;;;;;;;6.13;4.20;;;;;;;4.30;93.99;95356.56;5050738;28;20657;-80
2021/10/29 04:28:28;;;;;;;8.13;4.87;;;;;;;4.24;93.92;95363.00;5037900;28;20205;-80
2021/10/29 04:30:55;;;;;;;5.03;3.73;;;;;;;4.22;94.35;95352.00;5054648;28;20174;-80
2021/10/29 04:33:21;;;;;;;8.57;3.87;;;;;;;4.23;94.15;95356.22;5054178;28;20536;-80
2021/10/29 04:35:48;;;;;;;4.80;3.90;;;;;;;4.28;94.50;95360.19;5063198;28;20178;-80
2021/10/29 04:38:14;;;;;;;6.37;4.10;;;;;;;4.25;94.83;95358.69;5054606;28;20676;-81
2021/10/29 04:40:41;;;;;;;8.77;4.33;;;;;;;4.24;94.57;95357.88;5075437;28;20177;-80
2021/10/29 04:43:08;;;;;;;5.83;4.67;;;;;;;4.23;94.81;95356.22;5057868;28;20176;-79
2021/10/29 04:45:34;;;;;;;6.07;4.97;;;;;;;4.21;94.85;95347.78;5068308;28;20217;-80
2021/10/29 04:48:00;;;;;;;5.80;4.47;;;;;;;4.21;94.70;95339.28;5053321;28;20224;-79
2021/10/29 04:50:26;;;;;;;6.77;4.67;;;;;;;4.20;94.62;95338.44;5058165;28;20181;-80
2021/10/29 04:52:51;;;;;;;7.90;5.10;;;;;;;4.22;95.05;95346.03;5057337;28;20191;-79
2021/10/29 04:55:17;;;;;;;9.23;5.40;;;;;;;4.19;94.88;95338.56;5052376;28;20612;-79
2021/10/29 04:57:42;;;;;;;7.17;5.63;;;;;;;4.17;94.86;95336.13;5046918;28;20538;-79
2021/10/29 05:00:08;;;;;;;6.53;5.03;;;;;;;4.16;95.09;95339.63;5054180;28;20692;-79
2021/10/29 05:02:34;;;;;;;7.33;5.20;;;;;;;4.17;95.21;95343.81;5054481;28;20178;-79
2021/10/29 05:05:03;;;;;;;4.57;4.07;;;;;;;4.18;94.94;95337.75;5053529;28;20173;-79
2021/10/29 05:07:28;;;;;;;6.23;4.33;;;;;;;4.18;94.69;95337.75;5061783;28;20271;-79
2021/10/29 05:09:54;;;;;;;5.73;4.53;;;;;;;4.14;94.89;95332.94;5051950;28;20197;-80
2021/10/29 05:12:19;;;;;;;6.70;5.03;;;;;;;4.08;94.94;95331.66;5074500;28;20173;-79
2021/10/29 05:14:44;;;;;;;7.63;5.07;;;;;;;4.07;95.21;95334.34;5056967;28;20173;-80
2021/10/29 05:17:10;;;;;;;5.53;4.47;;;;;;;4.06;95.15;95333.50;5051016;28;20483;-79
2021/10/29 05:19:35;;;;;;;7.93;4.43;;;;;;;4.03;95.31;95326.03;5053770;28;20196;-79
2021/10/29 05:22:00;;;;;;;7.20;5.67;;;;;;;4.04;95.11;95330.22;5070050;28;20178;-80
2021/10/29 05:24:26;;;;;;;6.80;4.57;;;;;;;4.04;95.53;95331.97;5052603;28;20631;-79
2021/10/29 05:26:51;;;;;;;7.27;4.97;;;;;;;4.03;95.53;95331.16;5055031;28;20177;-79
2021/10/29 05:29:16;;;;;;;6.47;5.50;;;;;;;4.03;95.45;95328.59;5062531;28;20209;-79
2021/10/29 05:31:42;;;;;;;9.13;5.70;;;;;;;4.05;95.72;95320.78;5056433;28;20647;-79
2021/10/29 05:34:07;;;;;;;7.00;5.20;;;;;;;4.01;95.46;95317.63;5055762;28;20713;-79
2021/10/29 05:36:32;;;;;;;19.63;14.60;;;;;;;4.04;95.63;95309.69;5073284;28;20180;-80
2021/10/29 05:38:58;;;;;;;17.07;12.67;;;;;;;4.03;95.40;95315.75;5047483;28;20760;-79
2021/10/29 05:41:23;;;;;;;12.77;9.30;;;;;;;4.05;95.48;95320.78;5063328;28;20180;-79
2021/10/29 05:43:48;;;;;;;9.07;6.57;;;;;;;4.06;95.49;95319.84;5072440;28;20237;-80
2021/10/29 05:46:14;;;;;;;11.57;5.90;;;;;;;4.09;95.68;95311.91;5056180;28;20219;-79
2021/10/29 05:48:40;;;;;;;5.70;4.47;;;;;;;4.07;95.50;95314.59;5049227;28;20214;-79
2021/10/29 05:51:11;;;;;;;7.13;4.73;;;;;;;4.11;95.83;95312.63;5036776;28;20600;-79
2021/10/29 05:56:11;;;;;;;6.97;4.70;;;;;;;4.14;95.66;95305.50;5052870;28;20268;-79
2021/10/29 05:58:37;;;;;;;6.43;5.17;;;;;;;4.21;95.37;95300.72;5053213;28;20205;-79
2021/10/29 06:01:02;;;;;;;8.30;5.03;;;;;;;4.30;95.48;95306.91;5062552;28;20730;-79
2021/10/29 06:03:27;;;;;;;9.07;5.33;;;;;;;4.38;95.31;95309.72;5072002;28;20185;-79
2021/10/29 06:05:53;;;;;;;7.60;5.53;;;;;;;4.41;95.42;95305.16;5056019;28;20182;-79
2021/10/29 06:08:19;;;;;;;7.40;5.17;;;;;;;4.48;95.46;95305.53;5056464;28;20233;-79
2021/10/29 06:10:44;;;;;;;7.07;5.27;;;;;;;4.55;95.20;95306.69;5048750;28;20177;-79
2021/10/29 06:13:09;;;;;;;8.90;5.47;;;;;;;4.56;95.30;95305.75;5047552;28;20192;-80
2021/10/29 06:15:36;;;;;;;6.47;5.17;;;;;;;4.60;95.21;95311.50;5052092;28;20178;-79
2021/10/29 06:18:02;;;;;;;6.40;5.37;;;;;;;4.66;95.15;95309.28;5052697;28;20170;-79
2021/10/29 06:20:27;;;;;;;8.23;5.17;;;;;;;4.67;95.29;95303.19;5056205;28;20204;-80
2021/10/29 06:22:54;;;;;;;8.87;6.00;;;;;;;4.77;94.93;95296.44;5064221;28;20581;-80
2021/10/29 06:25:21;;;;;;;10.77;5.37;;;;;;;4.83;94.33;95298.50;5055863;28;20554;-79
2021/10/29 06:30:36;;;;;;;8.00;5.80;;;;;;;4.78;94.82;95299.81;5070962;28;20184;-80
2021/10/29 06:33:02;;;;;;;8.67;5.50;;;;;;;4.78;94.81;95305.78;5063855;28;20193;-80
2021/10/29 06:35:29;;;;;;;7.73;6.30;;;;;;;4.83;94.79;95292.53;5071988;28;20478;-79
2021/10/29 06:37:54;;;;;;;9.53;6.07;;;;;;;4.89;95.04;95302.38;5056381;28;20200;-79
2021/10/29 06:40:20;;;;;;;12.33;8.80;;;;;;;4.94;94.63;95304.56;5057759;28;20205;-79
2021/10/29 06:42:52;;;;;;;11.83;7.67;;;;;;;5.04;94.80;95310.66;5067851;28;20188;-79
2021/10/29 07:04:40;;;;;;;15.70;10.77;;;;;;;5.84;93.95;95329.13;5014972;28;20202;-80
2021/10/29 07:40:11;;;;;;;5.50;4.83;;;;;;;7.39;89.12;95327.31;5023440;28;20316;-77
2021/10/29 07:42:43;;;;;;;5.90;5.13;;;;;;;7.53;87.60;95326.13;5054746;28;20178;-79
2021/10/29 07:45:09;;;;;;;5.43;4.23;;;;;;;7.66;86.91;95330.06;5055744;28;20689;-78
2021/10/29 07:47:36;;;;;;;7.97;5.30;;;;;;;7.75;86.48;95327.63;5047317;28;20263;-79
2021/10/29 07:50:03;;;;;;;8.27;6.40;;;;;;;7.81;86.21;95330.50;5071301;28;20624;-77
2021/10/29 07:52:28;;;;;;;8.37;7.13;;;;;;;7.90;85.10;95331.44;5076647;28;20217;-79
2021/10/29 07:54:54;;;;;;;6.90;6.20;;;;;;;7.97;85.10;95334.31;5058233;28;20189;-79
2021/10/29 07:57:20;;;;;;;7.87;4.97;;;;;;;8.01;85.00;95328.72;5054128;28;20194;-78
2021/10/29 07:59:47;;;;;;;6.47;5.33;;;;;;;8.09;84.18;95330.63;5062411;28;20209;-79
2021/10/29 08:02:12;;;;;;;5.97;3.90;;;;;;;8.17;83.19;95328.97;5055233;28;20227;-78
2021/10/29 08:04:37;;;;;;;6.43;5.47;;;;;;;8.22;82.42;95329.38;5055823;28;20185;-78
2021/10/29 08:07:03;;;;;;;4.73;4.27;;;;;;;8.30;82.32;95328.66;5056348;28;20212;-78
2021/10/29 08:09:29;;;;;;;5.30;3.63;;;;;;;8.40;80.91;95334.69;5065906;28;20204;-78
2021/10/29 08:11:55;;;;;;;3.70;3.30;;;;;;;8.39;80.39;95333.06;5058184;28;20193;-79
2021/10/29 08:14:22;;;;;;;3.40;2.93;;;;;;;8.46;80.02;95328.13;5041911;28;20281;-79
2021/10/29 08:16:47;;;;;;;3.00;2.70;;;;;;;8.57;79.73;95320.22;5067300;28;20502;-78
2021/10/29 08:19:13;;;;;;;2.83;2.57;;;;;;;8.66;78.75;95326.31;5062474;28;20204;-78
2021/10/29 08:21:38;;;;;;;4.43;3.20;;;;;;;8.68;79.40;95327.00;5056447;28;20205;-79
2021/10/29 08:24:04;;;;;;;4.53;3.47;;;;;;;8.79;78.82;95319.84;5034537;28;20217;-78
2021/10/29 08:26:30;;;;;;;3.50;2.90;;;;;;;8.92;78.02;95319.56;5052441;28;20596;-78
2021/10/29 08:28:55;;;;;;;3.90;2.70;;;;;;;9.14;77.04;95315.75;5036423;28;20293;-79
2021/10/29 08:31:21;;;;;;;4.60;2.80;;;;;;;9.31;76.31;95317.56;5036451;28;20695;-79
2021/10/29 08:33:46;;;;;;;3.60;2.60;;;;;;;9.54;75.44;95315.41;5051498;28;20178;-80
2021/10/29 08:36:12;;;;;;;3.07;2.77;;;;;;;9.70;75.12;95317.31;5053444;28;20170;-80
2021/10/29 08:38:39;;;;;;;3.47;2.93;;;;;;;9.86;74.38;95317.47;5068384;28;20213;-80
2021/10/29 08:41:04;;;;;;;4.37;2.70;;;;;;;10.01;73.35;95309.97;5066125;28;20200;-79
2021/10/29 08:43:30;;;;;;;4.13;2.83;;;;;;;10.15;73.04;95319.00;5059796;28;20173;-81
2021/10/29 08:45:55;;;;;;;2.87;2.43;;;;;;;10.27;73.08;95317.84;5051677;28;20181;-78
2021/10/29 08:48:20;;;;;;;2.50;2.30;;;;;;;10.51;70.66;95317.16;5053359;28;20236;-77
2021/10/29 08:50:46;;;;;;;4.93;2.80;;;;;;;10.52;69.31;95311.03;5056175;28;20540;-76
2021/10/29 08:53:11;;;;;;;4.07;2.80;;;;;;;10.66;69.50;95318.25;5065749;28;20213;-78
2021/10/29 08:55:38;;;;;;;2.73;2.53;;;;;;;10.80;69.20;95316.88;5076419;28;20241;-78
2021/10/29 08:58:06;;;;;;;5.03;2.80;;;;;;;10.88;69.14;95313.50;5076886;28;20208;-80
2021/10/29 09:00:35;;;;;;;2.77;2.57;;;;;;;10.98;69.63;95315.00;5053889;28;20645;-77
2021/10/29 09:03:06;;;;;;;4.90;3.20;;;;;;;11.15;68.52;95320.28;5049533;28;20182;-77
2021/10/29 09:05:50;;;;;;;5.97;3.83;;;;;;;11.23;65.74;95315.94;5055240;28;20181;-77
2021/10/29 09:31:27;;;;;;;4.87;3.07;;;;;;;11.90;62.25;95308.13;5076139;28;20196;-78
2021/10/29 09:34:15;;;;;;;6.20;3.30;;;;;;;12.00;60.88;95314.00;5065163;28;20186;-77
2021/10/29 09:36:51;;;;;;;3.30;2.90;;;;;;;12.16;60.22;95311.41;5054723;28;20182;-78
2021/10/29 09:39:17;;;;;;;3.63;2.53;;;;;;;12.30;59.65;95301.31;5038158;28;20655;-77
2021/10/29 09:41:44;;;;;;;3.57;2.83;;;;;;;12.53;60.80;95298.84;5055894;28;20176;-78
2021/10/29 09:44:16;;;;;;;6.30;2.37;;;;;;;12.52;60.74;95308.44;5063513;28;20250;-78
2021/10/29 09:46:53;;;;;;;2.80;2.40;;;;;;;12.67;58.22;95305.97;5067281;28;20177;-77
2021/10/29 09:49:36;;;;;;;3.67;2.30;;;;;;;12.69;56.95;95302.22;5074153;28;20213;-78
2021/10/29 09:52:50;;;;;;;2.40;2.20;;;;;;;12.75;57.21;95304.16;5074619;28;20177;-78
2021/10/29 09:57:30;;;;;;;3.23;2.20;;;;;;;12.97;57.83;95309.63;5063346;28;20657;-77
2021/10/29 09:59:59;;;;;;;3.63;2.40;;;;;;;13.06;56.90;95306.03;5037069;28;20284;-78
2021/10/29 10:02:26;;;;;;;3.07;2.37;;;;;;;13.06;57.11;95313.84;5037939;28;20213;-78
2021/10/29 10:04:52;;;;;;;2.93;2.30;;;;;;;13.01;56.25;95308.34;5041448;28;20197;-78
2021/10/29 10:07:19;;;;;;;3.77;2.70;;;;;;;12.91;56.16;95303.31;5062206;28;20194;-78
2021/10/29 10:09:45;;;;;;;2.70;2.50;;;;;;;12.86;62.34;95305.59;5053783;28;20308;-77
2021/10/29 10:12:11;;;;;;;2.13;1.93;;;;;;;12.81;63.23;95305.31;5055164;28;20583;-78
2021/10/29 10:14:37;;;;;;;2.73;2.40;;;;;;;12.67;64.99;95312.00;5038085;28;20186;-77
2021/10/29 10:17:02;;;;;;;2.87;2.57;;;;;;;12.54;66.95;95306.47;5065064;28;20200;-77
2021/10/29 10:19:27;;;;;;;3.10;2.80;;;;;;;12.54;67.00;95301.25;5072657;28;20284;-77
2021/10/29 10:21:56;;;;;;;3.17;2.53;;;;;;;12.50;67.94;95305.19;5075322;28;20173;-77
2021/10/29 10:24:26;;;;;;;2.87;2.60;;;;;;;12.56;67.81;95299.34;5057226;28;20668;-78
2021/10/29 10:40:49;;;;;;;9.70;5.70;;;;;;;13.41;61.50;95293.50;5056381;28;20224;-78
2021/10/29 10:43:36;;;;;;;4.80;3.10;;;;;;;13.59;59.83;95292.25;5054773;28;20228;-77
2021/10/29 10:48:32;;;;;;;3.97;2.80;;;;;;;13.84;57.66;95279.88;5062566;28;20881;-77
2021/10/29 10:54:44;;;;;;;3.23;2.87;;;;;;;13.98;58.62;95264.47;5009022;28;20186;-77
2021/10/29 11:00:01;;;;;;;5.43;3.93;;;;;;;14.13;59.07;95267.91;5031083;28;20214;-78
2021/10/29 11:05:59;;;;;;;7.30;5.47;;;;;;;14.06;60.20;95260.00;5015777;28;20191;-78
2021/10/29 11:11:03;;;;;;;3.57;3.07;;;;;;;14.23;60.90;95246.78;5043713;28;20257;-78
2021/10/29 11:13:44;;;;;;;2.77;2.53;;;;;;;14.33;59.30;95252.56;5034487;28;20220;-78
2021/10/29 11:16:11;;;;;;;4.20;2.80;;;;;;;14.41;58.60;95247.28;5018680;28;20185;-78
2021/10/29 11:18:39;;;;;;;4.70;2.83;;;;;;;14.31;57.36;95237.09;5018005;28;20210;-78
2021/10/29 11:21:19;;;;;;;3.10;2.60;;;;;;;14.32;57.67;95230.88;5029384;28;20784;-78
2021/10/29 11:23:50;;;;;;;4.93;2.93;;;;;;;14.45;56.79;95227.66;5020471;28;20275;-77
2021/10/29 11:26:51;;;;;;;5.00;2.90;;;;;;;14.46;56.54;95224.06;5057320;28;20166;-78
2021/10/29 11:29:16;;;;;;;4.73;3.50;;;;;;;14.55;55.42;95222.97;5021507;28;20656;-78
2021/10/29 11:31:45;;;;;;;5.03;3.17;;;;;;;14.50;55.70;95219.28;5046293;28;20196;-78
2021/10/29 11:34:15;;;;;;;8.67;3.90;;;;;;;14.43;56.50;95225.19;5054525;28;20181;-77
2021/10/29 11:36:44;;;;;;;4.27;3.87;;;;;;;14.54;56.51;95221.34;5055293;28;20240;-77
2021/10/29 11:39:12;;;;;;;4.13;3.70;;;;;;;14.70;54.64;95221.19;5037834;28;20206;-78
2021/10/29 11:41:42;;;;;;;4.93;3.40;;;;;;;14.76;53.54;95221.47;5042519;28;20189;-78
2021/10/29 11:44:13;;;;;;;4.33;3.40;;;;;;;14.64;53.66;95213.25;5048841;28;20601;-79
2021/10/29 11:46:40;;;;;;;3.83;3.33;;;;;;;14.68;54.01;95222.38;5074077;28;20177;-78
2021/10/29 11:49:07;;;;;;;3.90;3.50;;;;;;;14.71;53.40;95204.50;5057192;28;20228;-78
2021/10/29 11:51:34;;;;;;;5.70;3.60;;;;;;;14.84;49.48;95209.09;5053629;28;20324;-78
2021/10/29 12:01:55;;;;;;;5.07;3.20;;;;;;;14.77;51.35;95202.97;5039255;28;20174;-77
2021/10/29 12:07:18;;;;;;;5.17;3.33;;;;;;;14.71;53.03;95191.44;5053192;28;20181;-78
2021/10/29 12:09:51;;;;;;;3.23;2.93;;;;;;;14.70;52.60;95191.63;5053833;28;20209;-78
2021/10/29 12:12:25;;;;;;;3.23;2.93;;;;;;;14.86;52.45;95191.44;5066030;28;20211;-79
2021/10/29 12:14:52;;;;;;;3.57;3.20;;;;;;;14.83;51.82;95188.34;5064334;28;20613;-78
2021/10/29 12:17:31;;;;;;;4.40;3.10;;;;;;;14.88;49.24;95181.59;5057350;28;20652;-78
2021/10/29 12:20:00;;;;;;;5.33;3.33;;;;;;;14.86;49.84;95173.13;5059988;28;20275;-79
2021/10/29 12:25:02;;;;;;;4.97;3.20;;;;;;;14.87;50.17;95179.16;5064598;28;20205;-78
2021/10/29 12:27:33;;;;;;;3.90;3.40;;;;;;;14.85;49.79;95178.56;5074245;28;20177;-79
2021/10/29 12:30:08;;;;;;;4.00;2.80;;;;;;;14.93;51.16;95179.25;5078002;28;20605;-79
2021/10/29 12:32:47;;;;;;;4.77;3.33;;;;;;;14.90;52.79;95171.75;5061946;28;20185;-79
2021/10/29 13:03:03;;;;;;;7.43;3.23;;;;;;;14.97;51.61;95133.44;5079827;28;20188;-78
2021/10/29 13:05:28;;;;;;;5.47;3.33;;;;;;;15.07;51.31;95129.72;5076044;28;20176;-78
2021/10/29 13:07:54;;;;;;;6.10;3.90;;;;;;;15.09;50.82;95132.94;5067103;28;20792;-78
2021/10/29 13:10:19;;;;;;;5.20;3.67;;;;;;;15.10;50.85;95129.31;5075280;28;20177;-79
2021/10/29 13:15:15;;;;;;;5.07;4.03;;;;;;;14.95;51.79;95122.34;5078169;28;20181;-77
2021/10/29 13:17:51;;;;;;;5.93;4.50;;;;;;;14.98;51.06;95126.41;5064728;28;20620;-76
2021/10/29 13:20:44;;;;;;;3.93;3.30;;;;;;;14.92;51.11;95132.34;5054195;28;20196;-76
2021/10/29 13:26:11;;;;;;;4.60;3.53;;;;;;;15.01;50.25;95121.59;5054003;28;20209;-77
2021/10/29 13:28:59;;;;;;;4.83;3.70;;;;;;;14.93;49.67;95121.75;5040150;28;20584;-77
2021/10/29 13:36:59;;;;;;;4.83;3.57;;;;;;;14.76;50.89;95124.75;5057296;28;20232;-78
2021/10/29 13:50:21;;;;;;;4.47;2.93;;;;;;;14.70;49.83;95123.66;5063084;28;20229;-77
2021/10/29 13:50:44;;;;;;;3.17;2.87;;;;;;;14.60;49.75;95117.94;5063264;28;20277;-76
2021/10/29 13:56:07;;;;;;;7.27;3.20;;;;;;;14.58;50.17;95114.69;5054661;28;20178;-78
2021/10/29 14:04:03;;;;;;;4.33;2.20;;;;;;;14.51;50.40;95113.78;5057533;28;20252;-78
2021/10/29 14:16:27;;;;;;;4.90;2.40;;;;;;;14.53;50.36;95111.81;5043642;28;20196;-78
2021/10/29 14:28:42;;;;;;;3.77;2.67;;;;;;;14.27;51.42;95107.81;5072622;28;20225;-79
2021/10/29 14:31:12;;;;;;;3.50;2.20;;;;;;;14.20;51.79;95112.16;5044772;28;20212;-78
2021/10/29 14:33:45;;;;;;;3.37;2.30;;;;;;;14.15;51.86;95111.91;5060505;28;20239;-79
2021/10/29 14:36:11;;;;;;;2.90;2.40;;;;;;;14.02;52.67;95109.88;5078700;28;20260;-78
2021/10/29 14:38:54;;;;;;;4.73;2.60;;;;;;;13.95;53.02;95113.38;5075866;28;20204;-79
2021/10/29 14:41:33;;;;;;;3.50;2.17;;;;;;;13.98;52.32;95113.84;5074393;28;20184;-78
2021/10/29 14:44:05;;;;;;;4.07;2.30;;;;;;;13.95;51.90;95108.16;5069309;28;20181;-78
2021/10/29 14:46:42;;;;;;;3.20;2.40;;;;;;;13.79;52.48;95109.97;5063232;28;20188;-78
2021/10/29 14:52:05;;;;;;;3.27;2.60;;;;;;;13.77;52.64;95114.53;5057666;28;20292;-78
2021/10/29 15:16:23;;;;;;;5.87;2.33;;;;;;;13.16;54.15;95108.47;5056102;28;20212;-78
2021/10/29 15:27:19;;;;;;;4.63;2.63;;;;;;;12.80;56.10;95107.41;5056543;28;20684;-78
2021/10/29 15:30:02;;;;;;;4.00;2.27;;;;;;;12.62;56.52;95100.69;5056380;28;20209;-78
2021/10/29 15:43:20;;;;;;;4.37;3.20;;;;;;;11.93;59.71;95089.25;5076787;28;20678;-78
2021/10/29 15:45:47;;;;;;;4.23;3.20;;;;;;;11.89;59.72;95098.34;5058321;28;20190;-78
2021/10/29 15:48:19;;;;;;;5.33;3.17;;;;;;;11.77;60.26;95094.47;5062183;28;20288;-77
2021/10/29 15:50:44;;;;;;;6.40;3.30;;;;;;;11.63;60.67;95093.34;5068014;28;20177;-77
2021/10/29 15:53:12;;;;;;;3.40;2.80;;;;;;;11.55;61.32;95091.56;5055525;28;20201;-77